sensor_id;sensor_type;location;lat;lon;timestamp;P1;durP1;ratioP1;P2;durP2;ratioP2
34497;SDS011;20744;50.938;7.286;2023-12-22T00:00:06;6.40;;;0.88;;
34497;SDS011;20744;50.938;7.286;2023-12-22T00:02:36;9.35;;;1.33;;
34497;SDS011;20744;50.938;7.286;2023-12-22T00:05:04;5.85;;;0.90;;
34497;SDS011;20744;50.938;7.286;2023-12-22T00:07:31;5.68;;;0.98;;
34497;SDS011;20744;50.938;7.286;2023-12-22T00:09:58;5.72;;;0.88;;
34497;SDS011;20744;50.938;7.286;2023-12-22T00:12:25;6.65;;;0.82;;
34497;SDS011;20744;50.938;7.286;2023-12-22T00:14:54;6.75;;;0.82;;
34497;SDS011;20744;50.938;7.286;2023-12-22T00:17:22;6.32;;;1.52;;
34497;SDS011;20744;50.938;7.286;2023-12-22T00:19:49;8.35;;;1.10;;
34497;SDS011;20744;50.938;7.286;2023-12-22T00:22:16;5.28;;;1.02;;
34497;SDS011;20744;50.938;7.286;2023-12-22T00:24:43;6.72;;;1.10;;
34497;SDS011;20744;50.938;7.286;2023-12-22T00:27:11;8.80;;;1.10;;
34497;SDS011;20744;50.938;7.286;2023-12-22T00:29:38;6.72;;;1.00;;
34497;SDS011;20744;50.938;7.286;2023-12-22T00:32:07;8.40;;;1.10;;
34497;SDS011;20744;50.938;7.286;2023-12-22T00:34:35;9.45;;;1.08;;
34497;SDS011;20744;50.938;7.286;2023-12-22T00:37:02;5.53;;;0.85;;
34497;SDS011;20744;50.938;7.286;2023-12-22T00:39:30;6.35;;;1.60;;
34497;SDS011;20744;50.938;7.286;2023-12-22T00:41:58;10.70;;;1.50;;
34497;SDS011;20744;50.938;7.286;2023-12-22T00:44:26;9.25;;;2.00;;
34497;SDS011;20744;50.938;7.286;2023-12-22T00:46:54;7.57;;;3.22;;
34497;SDS011;20744;50.938;7.286;2023-12-22T00:49:23;14.00;;;3.75;;
34497;SDS011;20744;50.938;7.286;2023-12-22T00:51:50;10.00;;;3.17;;
34497;SDS011;20744;50.938;7.286;2023-12-22T00:54:18;12.30;;;2.88;;
34497;SDS011;20744;50.938;7.286;2023-12-22T00:56:45;7.70;;;1.50;;
34497;SDS011;20744;50.938;7.286;2023-12-22T00:59:12;12.23;;;1.73;;
34497;SDS011;20744;50.938;7.286;2023-12-22T01:01:39;10.35;;;1.10;;
34497;SDS011;20744;50.938;7.286;2023-12-22T01:04:06;7.63;;;1.08;;
34497;SDS011;20744;50.938;7.286;2023-12-22T01:06:38;8.55;;;1.58;;
34497;SDS011;20744;50.938;7.286;2023-12-22T01:09:05;8.15;;;1.15;;
34497;SDS011;20744;50.938;7.286;2023-12-22T01:11:32;5.95;;;1.27;;
34497;SDS011;20744;50.938;7.286;2023-12-22T01:13:59;6.43;;;1.30;;
34497;SDS011;20744;50.938;7.286;2023-12-22T01:16:27;8.80;;;0.80;;
34497;SDS011;20744;50.938;7.286;2023-12-22T01:18:54;6.47;;;1.23;;
34497;SDS011;20744;50.938;7.286;2023-12-22T01:21:21;9.90;;;1.20;;
34497;SDS011;20744;50.938;7.286;2023-12-22T01:23:50;11.32;;;1.45;;
34497;SDS011;20744;50.938;7.286;2023-12-22T01:26:20;13.25;;;1.17;;
34497;SDS011;20744;50.938;7.286;2023-12-22T01:28:50;8.52;;;1.55;;
34497;SDS011;20744;50.938;7.286;2023-12-22T01:31:17;7.45;;;1.05;;
34497;SDS011;20744;50.938;7.286;2023-12-22T01:33:47;6.22;;;1.45;;
34497;SDS011;20744;50.938;7.286;2023-12-22T01:36:14;8.45;;;0.82;;
34497;SDS011;20744;50.938;7.286;2023-12-22T01:38:42;3.67;;;0.80;;
34497;SDS011;20744;50.938;7.286;2023-12-22T01:41:10;7.40;;;1.13;;
34497;SDS011;20744;50.938;7.286;2023-12-22T01:43:38;7.85;;;1.10;;
34497;SDS011;20744;50.938;7.286;2023-12-22T01:46:05;7.93;;;1.13;;
34497;SDS011;20744;50.938;7.286;2023-12-22T01:48:33;4.45;;;0.70;;
34497;SDS011;20744;50.938;7.286;2023-12-22T01:51:01;8.15;;;1.08;;
34497;SDS011;20744;50.938;7.286;2023-12-22T01:53:29;11.50;;;1.58;;
34497;SDS011;20744;50.938;7.286;2023-12-22T01:55:57;5.63;;;0.90;;
34497;SDS011;20744;50.938;7.286;2023-12-22T01:58:27;13.23;;;1.25;;
34497;SDS011;20744;50.938;7.286;2023-12-22T02:00:54;12.85;;;1.30;;
34497;SDS011;20744;50.938;7.286;2023-12-22T02:03:22;9.32;;;1.17;;
34497;SDS011;20744;50.938;7.286;2023-12-22T02:05:49;13.18;;;1.60;;
34497;SDS011;20744;50.938;7.286;2023-12-22T02:08:17;8.07;;;1.30;;
34497;SDS011;20744;50.938;7.286;2023-12-22T02:10:46;11.82;;;1.52;;
34497;SDS011;20744;50.938;7.286;2023-12-22T02:13:13;10.30;;;1.75;;
34497;SDS011;20744;50.938;7.286;2023-12-22T02:15:42;13.32;;;1.45;;
34497;SDS011;20744;50.938;7.286;2023-12-22T02:18:10;9.50;;;1.48;;
34497;SDS011;20744;50.938;7.286;2023-12-22T02:20:38;15.23;;;1.52;;
34497;SDS011;20744;50.938;7.286;2023-12-22T02:23:08;13.50;;;2.22;;
34497;SDS011;20744;50.938;7.286;2023-12-22T02:25:35;13.93;;;2.08;;
34497;SDS011;20744;50.938;7.286;2023-12-22T02:28:04;7.97;;;1.58;;
34497;SDS011;20744;50.938;7.286;2023-12-22T02:30:33;13.00;;;2.28;;
34497;SDS011;20744;50.938;7.286;2023-12-22T02:33:03;6.40;;;1.70;;
34497;SDS011;20744;50.938;7.286;2023-12-22T02:35:32;10.52;;;1.98;;
34497;SDS011;20744;50.938;7.286;2023-12-22T02:38:00;12.75;;;2.00;;
34497;SDS011;20744;50.938;7.286;2023-12-22T02:40:29;14.40;;;2.03;;
34497;SDS011;20744;50.938;7.286;2023-12-22T02:42:56;15.30;;;2.38;;
34497;SDS011;20744;50.938;7.286;2023-12-22T02:45:24;16.35;;;2.40;;
34497;SDS011;20744;50.938;7.286;2023-12-22T02:47:51;9.38;;;1.80;;
34497;SDS011;20744;50.938;7.286;2023-12-22T02:50:18;9.18;;;1.80;;
34497;SDS011;20744;50.938;7.286;2023-12-22T02:52:46;12.35;;;1.95;;
34497;SDS011;20744;50.938;7.286;2023-12-22T02:55:13;11.02;;;2.03;;
34497;SDS011;20744;50.938;7.286;2023-12-22T02:57:42;13.63;;;2.15;;
34497;SDS011;20744;50.938;7.286;2023-12-22T03:00:12;12.65;;;2.28;;
34497;SDS011;20744;50.938;7.286;2023-12-22T03:02:39;15.68;;;2.15;;
34497;SDS011;20744;50.938;7.286;2023-12-22T03:05:07;19.27;;;2.35;;
34497;SDS011;20744;50.938;7.286;2023-12-22T03:07:40;16.90;;;3.05;;
34497;SDS011;20744;50.938;7.286;2023-12-22T03:10:09;12.13;;;2.90;;
34497;SDS011;20744;50.938;7.286;2023-12-22T03:12:37;15.35;;;2.70;;
34497;SDS011;20744;50.938;7.286;2023-12-22T03:15:06;18.48;;;3.35;;
34497;SDS011;20744;50.938;7.286;2023-12-22T03:17:33;16.27;;;2.58;;
34497;SDS011;20744;50.938;7.286;2023-12-22T03:20:01;8.10;;;1.83;;
34497;SDS011;20744;50.938;7.286;2023-12-22T03:22:28;11.93;;;2.22;;
34497;SDS011;20744;50.938;7.286;2023-12-22T03:24:55;11.93;;;1.83;;
34497;SDS011;20744;50.938;7.286;2023-12-22T03:27:22;16.08;;;2.03;;
34497;SDS011;20744;50.938;7.286;2023-12-22T03:29:50;9.00;;;1.85;;
34497;SDS011;20744;50.938;7.286;2023-12-22T03:32:18;11.98;;;2.10;;
34497;SDS011;20744;50.938;7.286;2023-12-22T03:34:46;13.70;;;2.15;;
34497;SDS011;20744;50.938;7.286;2023-12-22T03:37:13;12.82;;;2.03;;
34497;SDS011;20744;50.938;7.286;2023-12-22T03:39:40;14.38;;;2.10;;
34497;SDS011;20744;50.938;7.286;2023-12-22T03:42:08;14.45;;;2.30;;
34497;SDS011;20744;50.938;7.286;2023-12-22T03:44:37;12.38;;;2.33;;
34497;SDS011;20744;50.938;7.286;2023-12-22T03:47:05;11.93;;;2.00;;
34497;SDS011;20744;50.938;7.286;2023-12-22T03:49:34;16.25;;;2.50;;
34497;SDS011;20744;50.938;7.286;2023-12-22T03:52:01;12.95;;;2.90;;
34497;SDS011;20744;50.938;7.286;2023-12-22T03:54:28;18.73;;;2.63;;
34497;SDS011;20744;50.938;7.286;2023-12-22T03:56:55;19.33;;;2.53;;
34497;SDS011;20744;50.938;7.286;2023-12-22T03:59:23;13.40;;;2.13;;
34497;SDS011;20744;50.938;7.286;2023-12-22T04:01:50;12.10;;;1.98;;
34497;SDS011;20744;50.938;7.286;2023-12-22T04:04:20;15.45;;;2.55;;
34497;SDS011;20744;50.938;7.286;2023-12-22T04:06:49;17.95;;;2.30;;
34497;SDS011;20744;50.938;7.286;2023-12-22T04:09:18;13.27;;;2.42;;
34497;SDS011;20744;50.938;7.286;2023-12-22T04:11:45;21.20;;;2.95;;
34497;SDS011;20744;50.938;7.286;2023-12-22T04:14:12;17.13;;;2.67;;
34497;SDS011;20744;50.938;7.286;2023-12-22T04:16:40;13.55;;;2.20;;
34497;SDS011;20744;50.938;7.286;2023-12-22T04:19:07;18.42;;;2.40;;
34497;SDS011;20744;50.938;7.286;2023-12-22T04:21:35;21.77;;;2.53;;
34497;SDS011;20744;50.938;7.286;2023-12-22T04:24:04;14.98;;;2.47;;
34497;SDS011;20744;50.938;7.286;2023-12-22T04:26:31;24.10;;;3.17;;
34497;SDS011;20744;50.938;7.286;2023-12-22T04:28:59;20.15;;;2.40;;
34497;SDS011;20744;50.938;7.286;2023-12-22T04:31:26;24.05;;;3.33;;
34497;SDS011;20744;50.938;7.286;2023-12-22T04:33:53;23.30;;;3.92;;
34497;SDS011;20744;50.938;7.286;2023-12-22T04:36:21;17.77;;;3.08;;
34497;SDS011;20744;50.938;7.286;2023-12-22T04:38:48;18.75;;;2.88;;
34497;SDS011;20744;50.938;7.286;2023-12-22T04:41:17;22.77;;;3.10;;
34497;SDS011;20744;50.938;7.286;2023-12-22T04:43:44;15.45;;;2.33;;
34497;SDS011;20744;50.938;7.286;2023-12-22T04:46:11;19.63;;;2.53;;
34497;SDS011;20744;50.938;7.286;2023-12-22T04:48:39;20.17;;;2.90;;
34497;SDS011;20744;50.938;7.286;2023-12-22T04:51:06;19.45;;;3.25;;
34497;SDS011;20744;50.938;7.286;2023-12-22T04:53:33;21.67;;;3.53;;
34497;SDS011;20744;50.938;7.286;2023-12-22T04:56:01;20.02;;;3.45;;
34497;SDS011;20744;50.938;7.286;2023-12-22T04:58:29;15.80;;;2.78;;
34497;SDS011;20744;50.938;7.286;2023-12-22T05:00:57;16.77;;;3.05;;
34497;SDS011;20744;50.938;7.286;2023-12-22T05:03:24;15.10;;;2.40;;
34497;SDS011;20744;50.938;7.286;2023-12-22T05:05:52;14.88;;;2.80;;
34497;SDS011;20744;50.938;7.286;2023-12-22T05:08:19;16.55;;;2.40;;
34497;SDS011;20744;50.938;7.286;2023-12-22T05:10:46;17.85;;;2.67;;
34497;SDS011;20744;50.938;7.286;2023-12-22T05:13:14;21.77;;;3.08;;
34497;SDS011;20744;50.938;7.286;2023-12-22T05:15:42;19.80;;;3.15;;
34497;SDS011;20744;50.938;7.286;2023-12-22T05:18:10;12.45;;;3.10;;
34497;SDS011;20744;50.938;7.286;2023-12-22T05:20:37;24.63;;;3.70;;
34497;SDS011;20744;50.938;7.286;2023-12-22T05:23:05;20.58;;;3.50;;
34497;SDS011;20744;50.938;7.286;2023-12-22T05:25:32;18.67;;;3.33;;
34497;SDS011;20744;50.938;7.286;2023-12-22T05:27:59;20.67;;;3.55;;
34497;SDS011;20744;50.938;7.286;2023-12-22T05:30:26;15.35;;;2.45;;
34497;SDS011;20744;50.938;7.286;2023-12-22T05:32:58;18.85;;;2.75;;
34497;SDS011;20744;50.938;7.286;2023-12-22T05:35:26;22.05;;;3.35;;
34497;SDS011;20744;50.938;7.286;2023-12-22T05:37:53;22.88;;;2.80;;
34497;SDS011;20744;50.938;7.286;2023-12-22T05:40:20;18.70;;;2.72;;
34497;SDS011;20744;50.938;7.286;2023-12-22T05:42:47;25.00;;;2.75;;
34497;SDS011;20744;50.938;7.286;2023-12-22T05:45:15;20.60;;;3.17;;
34497;SDS011;20744;50.938;7.286;2023-12-22T05:47:43;19.20;;;3.17;;
34497;SDS011;20744;50.938;7.286;2023-12-22T05:50:12;22.60;;;3.10;;
34497;SDS011;20744;50.938;7.286;2023-12-22T05:52:45;30.67;;;3.15;;
34497;SDS011;20744;50.938;7.286;2023-12-22T05:55:12;19.05;;;3.22;;
34497;SDS011;20744;50.938;7.286;2023-12-22T05:57:39;23.52;;;2.97;;
34497;SDS011;20744;50.938;7.286;2023-12-22T06:00:07;20.40;;;2.58;;
34497;SDS011;20744;50.938;7.286;2023-12-22T06:02:36;19.23;;;2.65;;
34497;SDS011;20744;50.938;7.286;2023-12-22T06:05:04;21.10;;;2.47;;
34497;SDS011;20744;50.938;7.286;2023-12-22T06:07:35;24.42;;;2.80;;
34497;SDS011;20744;50.938;7.286;2023-12-22T06:10:02;21.45;;;3.15;;
34497;SDS011;20744;50.938;7.286;2023-12-22T06:12:29;21.10;;;3.25;;
34497;SDS011;20744;50.938;7.286;2023-12-22T06:14:59;17.77;;;2.67;;
34497;SDS011;20744;50.938;7.286;2023-12-22T06:17:27;21.80;;;3.03;;
34497;SDS011;20744;50.938;7.286;2023-12-22T06:19:54;14.25;;;3.00;;
34497;SDS011;20744;50.938;7.286;2023-12-22T06:22:21;18.98;;;2.67;;
34497;SDS011;20744;50.938;7.286;2023-12-22T06:24:50;18.25;;;3.05;;
34497;SDS011;20744;50.938;7.286;2023-12-22T06:27:26;17.27;;;3.05;;
34497;SDS011;20744;50.938;7.286;2023-12-22T06:29:54;20.27;;;2.90;;
34497;SDS011;20744;50.938;7.286;2023-12-22T06:32:22;28.88;;;3.22;;
34497;SDS011;20744;50.938;7.286;2023-12-22T06:34:49;18.63;;;3.03;;
34497;SDS011;20744;50.938;7.286;2023-12-22T06:37:17;21.00;;;2.83;;
34497;SDS011;20744;50.938;7.286;2023-12-22T06:39:44;23.23;;;3.45;;
34497;SDS011;20744;50.938;7.286;2023-12-22T06:42:13;23.08;;;3.08;;
34497;SDS011;20744;50.938;7.286;2023-12-22T06:44:41;22.52;;;3.15;;
34497;SDS011;20744;50.938;7.286;2023-12-22T06:47:09;16.65;;;3.15;;
34497;SDS011;20744;50.938;7.286;2023-12-22T06:49:39;15.80;;;2.92;;
34497;SDS011;20744;50.938;7.286;2023-12-22T06:52:06;15.77;;;2.42;;
34497;SDS011;20744;50.938;7.286;2023-12-22T06:54:34;20.63;;;2.75;;
34497;SDS011;20744;50.938;7.286;2023-12-22T06:57:01;18.38;;;2.80;;
34497;SDS011;20744;50.938;7.286;2023-12-22T06:59:32;17.50;;;2.90;;
34497;SDS011;20744;50.938;7.286;2023-12-22T07:01:59;20.33;;;3.00;;
34497;SDS011;20744;50.938;7.286;2023-12-22T07:04:27;22.52;;;3.08;;
34497;SDS011;20744;50.938;7.286;2023-12-22T07:06:54;19.10;;;2.80;;
34497;SDS011;20744;50.938;7.286;2023-12-22T07:09:28;19.83;;;2.85;;
34497;SDS011;20744;50.938;7.286;2023-12-22T07:11:54;20.15;;;2.70;;
34497;SDS011;20744;50.938;7.286;2023-12-22T07:14:22;24.10;;;3.17;;
34497;SDS011;20744;50.938;7.286;2023-12-22T07:16:50;23.52;;;3.60;;
34497;SDS011;20744;50.938;7.286;2023-12-22T07:19:18;17.50;;;2.53;;
34497;SDS011;20744;50.938;7.286;2023-12-22T07:21:45;14.65;;;2.30;;
34497;SDS011;20744;50.938;7.286;2023-12-22T07:24:12;16.02;;;2.70;;
34497;SDS011;20744;50.938;7.286;2023-12-22T07:26:41;15.50;;;2.90;;
34497;SDS011;20744;50.938;7.286;2023-12-22T07:29:09;20.27;;;2.58;;
34497;SDS011;20744;50.938;7.286;2023-12-22T07:31:36;20.90;;;2.75;;
34497;SDS011;20744;50.938;7.286;2023-12-22T07:34:05;11.60;;;2.28;;
34497;SDS011;20744;50.938;7.286;2023-12-22T07:36:32;14.18;;;2.42;;
34497;SDS011;20744;50.938;7.286;2023-12-22T07:38:59;10.50;;;2.35;;
34497;SDS011;20744;50.938;7.286;2023-12-22T07:41:26;18.50;;;2.78;;
34497;SDS011;20744;50.938;7.286;2023-12-22T07:43:54;14.93;;;2.83;;
34497;SDS011;20744;50.938;7.286;2023-12-22T07:46:21;12.35;;;2.28;;
34497;SDS011;20744;50.938;7.286;2023-12-22T07:48:48;26.35;;;2.97;;
34497;SDS011;20744;50.938;7.286;2023-12-22T07:51:17;17.17;;;2.33;;
34497;SDS011;20744;50.938;7.286;2023-12-22T07:53:45;7.97;;;1.80;;
34497;SDS011;20744;50.938;7.286;2023-12-22T07:56:12;10.80;;;1.70;;
34497;SDS011;20744;50.938;7.286;2023-12-22T07:58:39;14.25;;;2.55;;
34497;SDS011;20744;50.938;7.286;2023-12-22T08:01:07;10.68;;;2.00;;
34497;SDS011;20744;50.938;7.286;2023-12-22T08:03:34;15.50;;;2.00;;
34497;SDS011;20744;50.938;7.286;2023-12-22T08:06:02;11.63;;;2.15;;
34497;SDS011;20744;50.938;7.286;2023-12-22T08:08:31;12.90;;;2.30;;
34497;SDS011;20744;50.938;7.286;2023-12-22T08:10:59;13.82;;;1.95;;
34497;SDS011;20744;50.938;7.286;2023-12-22T08:13:26;17.42;;;2.20;;
34497;SDS011;20744;50.938;7.286;2023-12-22T08:15:54;15.95;;;2.22;;
34497;SDS011;20744;50.938;7.286;2023-12-22T08:18:23;23.65;;;2.10;;
34497;SDS011;20744;50.938;7.286;2023-12-22T08:20:53;11.85;;;2.08;;
34497;SDS011;20744;50.938;7.286;2023-12-22T08:23:20;12.63;;;2.08;;
34497;SDS011;20744;50.938;7.286;2023-12-22T08:25:56;14.88;;;3.15;;
34497;SDS011;20744;50.938;7.286;2023-12-22T08:28:24;18.45;;;3.38;;
34497;SDS011;20744;50.938;7.286;2023-12-22T08:30:51;19.50;;;3.55;;
34497;SDS011;20744;50.938;7.286;2023-12-22T08:33:18;18.50;;;4.38;;
34497;SDS011;20744;50.938;7.286;2023-12-22T08:35:47;17.55;;;4.07;;
34497;SDS011;20744;50.938;7.286;2023-12-22T08:38:15;18.23;;;4.30;;
34497;SDS011;20744;50.938;7.286;2023-12-22T08:40:42;22.48;;;5.22;;
34497;SDS011;20744;50.938;7.286;2023-12-22T08:43:11;21.98;;;5.57;;
34497;SDS011;20744;50.938;7.286;2023-12-22T08:45:40;24.65;;;5.63;;
34497;SDS011;20744;50.938;7.286;2023-12-22T08:48:09;28.45;;;4.88;;
34497;SDS011;20744;50.938;7.286;2023-12-22T08:50:36;33.78;;;4.97;;
34497;SDS011;20744;50.938;7.286;2023-12-22T08:53:03;28.30;;;4.40;;
34497;SDS011;20744;50.938;7.286;2023-12-22T08:55:31;35.00;;;5.88;;
34497;SDS011;20744;50.938;7.286;2023-12-22T08:57:58;38.88;;;5.80;;
34497;SDS011;20744;50.938;7.286;2023-12-22T09:00:26;40.45;;;6.18;;
34497;SDS011;20744;50.938;7.286;2023-12-22T09:02:54;38.83;;;6.10;;
34497;SDS011;20744;50.938;7.286;2023-12-22T09:05:21;38.03;;;6.85;;
34497;SDS011;20744;50.938;7.286;2023-12-22T09:07:48;43.33;;;7.35;;
34497;SDS011;20744;50.938;7.286;2023-12-22T09:10:16;33.40;;;6.05;;
34497;SDS011;20744;50.938;7.286;2023-12-22T09:12:44;32.70;;;6.10;;
34497;SDS011;20744;50.938;7.286;2023-12-22T09:15:11;43.10;;;6.82;;
34497;SDS011;20744;50.938;7.286;2023-12-22T09:17:40;49.40;;;6.25;;
34497;SDS011;20744;50.938;7.286;2023-12-22T09:20:08;43.03;;;6.55;;
34497;SDS011;20744;50.938;7.286;2023-12-22T09:22:35;44.92;;;6.55;;
34497;SDS011;20744;50.938;7.286;2023-12-22T09:25:02;43.53;;;6.50;;
34497;SDS011;20744;50.938;7.286;2023-12-22T09:27:30;44.88;;;6.38;;
34497;SDS011;20744;50.938;7.286;2023-12-22T09:29:57;37.53;;;6.13;;
34497;SDS011;20744;50.938;7.286;2023-12-22T09:32:24;28.63;;;5.40;;
34497;SDS011;20744;50.938;7.286;2023-12-22T09:34:53;42.08;;;5.97;;
34497;SDS011;20744;50.938;7.286;2023-12-22T09:37:24;40.83;;;6.28;;
34497;SDS011;20744;50.938;7.286;2023-12-22T09:39:50;34.55;;;6.15;;
34497;SDS011;20744;50.938;7.286;2023-12-22T09:42:17;27.05;;;5.55;;
34497;SDS011;20744;50.938;7.286;2023-12-22T09:44:44;38.42;;;6.22;;
34497;SDS011;20744;50.938;7.286;2023-12-22T09:47:13;35.55;;;5.60;;
34497;SDS011;20744;50.938;7.286;2023-12-22T09:49:41;41.80;;;5.50;;
34497;SDS011;20744;50.938;7.286;2023-12-22T09:52:10;40.15;;;6.68;;
34497;SDS011;20744;50.938;7.286;2023-12-22T09:54:38;35.53;;;5.60;;
34497;SDS011;20744;50.938;7.286;2023-12-22T09:57:05;33.03;;;5.50;;
34497;SDS011;20744;50.938;7.286;2023-12-22T09:59:32;34.45;;;5.70;;
34497;SDS011;20744;50.938;7.286;2023-12-22T10:02:00;32.60;;;4.55;;
34497;SDS011;20744;50.938;7.286;2023-12-22T10:04:29;27.80;;;5.05;;
34497;SDS011;20744;50.938;7.286;2023-12-22T10:06:57;28.40;;;4.47;;
34497;SDS011;20744;50.938;7.286;2023-12-22T10:09:27;37.60;;;5.05;;
34497;SDS011;20744;50.938;7.286;2023-12-22T10:11:55;28.50;;;4.82;;
34497;SDS011;20744;50.938;7.286;2023-12-22T10:14:23;26.42;;;3.97;;
34497;SDS011;20744;50.938;7.286;2023-12-22T10:16:54;25.45;;;4.22;;
34497;SDS011;20744;50.938;7.286;2023-12-22T10:19:22;23.85;;;3.97;;
34497;SDS011;20744;50.938;7.286;2023-12-22T10:21:49;27.17;;;5.10;;
34497;SDS011;20744;50.938;7.286;2023-12-22T10:27:04;26.40;;;3.78;;
34497;SDS011;20744;50.938;7.286;2023-12-22T10:29:31;24.67;;;4.50;;
34497;SDS011;20744;50.938;7.286;2023-12-22T10:32:00;21.58;;;4.07;;
34497;SDS011;20744;50.938;7.286;2023-12-22T10:34:28;18.08;;;3.85;;
34497;SDS011;20744;50.938;7.286;2023-12-22T10:36:55;17.15;;;3.40;;
34497;SDS011;20744;50.938;7.286;2023-12-22T10:39:24;16.83;;;3.45;;
34497;SDS011;20744;50.938;7.286;2023-12-22T10:41:53;19.70;;;3.15;;
34497;SDS011;20744;50.938;7.286;2023-12-22T10:44:24;18.55;;;3.67;;
34497;SDS011;20744;50.938;7.286;2023-12-22T10:46:52;20.35;;;3.08;;
34497;SDS011;20744;50.938;7.286;2023-12-22T10:49:20;11.02;;;2.45;;
34497;SDS011;20744;50.938;7.286;2023-12-22T10:51:47;12.73;;;2.63;;
34497;SDS011;20744;50.938;7.286;2023-12-22T10:54:15;11.70;;;2.38;;
34497;SDS011;20744;50.938;7.286;2023-12-22T10:56:42;10.80;;;2.28;;
34497;SDS011;20744;50.938;7.286;2023-12-22T10:59:10;7.43;;;1.77;;
34497;SDS011;20744;50.938;7.286;2023-12-22T11:01:41;7.97;;;2.20;;
34497;SDS011;20744;50.938;7.286;2023-12-22T11:04:09;7.13;;;1.88;;
34497;SDS011;20744;50.938;7.286;2023-12-22T11:06:40;7.05;;;2.10;;
34497;SDS011;20744;50.938;7.286;2023-12-22T11:09:09;7.78;;;2.50;;
34497;SDS011;20744;50.938;7.286;2023-12-22T11:11:38;8.52;;;2.10;;
34497;SDS011;20744;50.938;7.286;2023-12-22T11:14:06;13.65;;;1.88;;
34497;SDS011;20744;50.938;7.286;2023-12-22T11:16:35;6.07;;;1.80;;
34497;SDS011;20744;50.938;7.286;2023-12-22T11:19:03;4.40;;;1.83;;
34497;SDS011;20744;50.938;7.286;2023-12-22T11:21:33;10.05;;;2.38;;
34497;SDS011;20744;50.938;7.286;2023-12-22T11:24:02;7.10;;;2.03;;
34497;SDS011;20744;50.938;7.286;2023-12-22T11:26:29;4.55;;;2.08;;
34497;SDS011;20744;50.938;7.286;2023-12-22T11:29:00;6.78;;;2.67;;
34497;SDS011;20744;50.938;7.286;2023-12-22T11:31:31;6.05;;;2.28;;
34497;SDS011;20744;50.938;7.286;2023-12-22T11:33:58;7.93;;;3.13;;
34497;SDS011;20744;50.938;7.286;2023-12-22T11:36:27;7.55;;;3.10;;
34497;SDS011;20744;50.938;7.286;2023-12-22T11:38:56;6.13;;;2.75;;
34497;SDS011;20744;50.938;7.286;2023-12-22T11:41:24;10.13;;;3.20;;
34497;SDS011;20744;50.938;7.286;2023-12-22T11:43:53;6.07;;;2.58;;
34497;SDS011;20744;50.938;7.286;2023-12-22T11:46:20;9.38;;;2.55;;
34497;SDS011;20744;50.938;7.286;2023-12-22T11:48:48;10.10;;;2.53;;
34497;SDS011;20744;50.938;7.286;2023-12-22T11:51:16;8.50;;;2.50;;
34497;SDS011;20744;50.938;7.286;2023-12-22T11:53:50;6.72;;;2.90;;
34497;SDS011;20744;50.938;7.286;2023-12-22T11:56:17;6.63;;;2.53;;
34497;SDS011;20744;50.938;7.286;2023-12-22T11:58:46;10.60;;;2.80;;
34497;SDS011;20744;50.938;7.286;2023-12-22T12:01:19;6.32;;;2.60;;
34497;SDS011;20744;50.938;7.286;2023-12-22T12:03:50;7.90;;;2.85;;
34497;SDS011;20744;50.938;7.286;2023-12-22T12:06:21;5.10;;;2.60;;
34497;SDS011;20744;50.938;7.286;2023-12-22T12:08:50;8.52;;;2.53;;
34497;SDS011;20744;50.938;7.286;2023-12-22T12:11:18;5.97;;;2.25;;
34497;SDS011;20744;50.938;7.286;2023-12-22T12:13:46;10.23;;;2.78;;
34497;SDS011;20744;50.938;7.286;2023-12-22T12:16:13;6.97;;;2.55;;
34497;SDS011;20744;50.938;7.286;2023-12-22T12:18:41;8.65;;;2.67;;
34497;SDS011;20744;50.938;7.286;2023-12-22T12:21:08;13.77;;;2.63;;
34497;SDS011;20744;50.938;7.286;2023-12-22T12:23:37;6.55;;;2.75;;
34497;SDS011;20744;50.938;7.286;2023-12-22T12:26:07;6.90;;;2.53;;
34497;SDS011;20744;50.938;7.286;2023-12-22T12:28:34;6.53;;;2.42;;
34497;SDS011;20744;50.938;7.286;2023-12-22T12:31:02;8.05;;;2.00;;
34497;SDS011;20744;50.938;7.286;2023-12-22T12:33:33;10.82;;;2.92;;
34497;SDS011;20744;50.938;7.286;2023-12-22T12:36:05;17.80;;;2.45;;
34497;SDS011;20744;50.938;7.286;2023-12-22T12:38:43;9.02;;;2.50;;
34497;SDS011;20744;50.938;7.286;2023-12-22T12:41:13;8.68;;;2.22;;
34497;SDS011;20744;50.938;7.286;2023-12-22T12:43:42;6.63;;;1.88;;
34497;SDS011;20744;50.938;7.286;2023-12-22T12:46:10;5.03;;;1.83;;
34497;SDS011;20744;50.938;7.286;2023-12-22T12:48:37;4.60;;;1.83;;
34497;SDS011;20744;50.938;7.286;2023-12-22T12:51:05;6.45;;;1.58;;
34497;SDS011;20744;50.938;7.286;2023-12-22T12:53:32;6.03;;;2.03;;
34497;SDS011;20744;50.938;7.286;2023-12-22T12:56:00;3.65;;;1.70;;
34497;SDS011;20744;50.938;7.286;2023-12-22T12:58:29;5.38;;;1.65;;
34497;SDS011;20744;50.938;7.286;2023-12-22T13:01:06;4.18;;;1.65;;
34497;SDS011;20744;50.938;7.286;2023-12-22T13:06:19;5.65;;;1.55;;
34497;SDS011;20744;50.938;7.286;2023-12-22T13:08:49;4.60;;;1.55;;
34497;SDS011;20744;50.938;7.286;2023-12-22T13:11:20;7.28;;;1.85;;
34497;SDS011;20744;50.938;7.286;2023-12-22T13:13:49;5.68;;;1.55;;
34497;SDS011;20744;50.938;7.286;2023-12-22T13:16:17;6.88;;;1.92;;
34497;SDS011;20744;50.938;7.286;2023-12-22T13:18:45;4.45;;;1.30;;
34497;SDS011;20744;50.938;7.286;2023-12-22T13:21:12;10.45;;;2.25;;
34497;SDS011;20744;50.938;7.286;2023-12-22T13:23:39;8.10;;;2.30;;
34497;SDS011;20744;50.938;7.286;2023-12-22T13:26:16;6.50;;;1.92;;
34497;SDS011;20744;50.938;7.286;2023-12-22T13:28:44;8.32;;;2.05;;
34497;SDS011;20744;50.938;7.286;2023-12-22T13:31:13;8.15;;;2.03;;
34497;SDS011;20744;50.938;7.286;2023-12-22T13:33:43;6.57;;;1.67;;
34497;SDS011;20744;50.938;7.286;2023-12-22T13:36:10;9.27;;;2.70;;
34497;SDS011;20744;50.938;7.286;2023-12-22T13:38:38;6.78;;;1.70;;
34497;SDS011;20744;50.938;7.286;2023-12-22T13:41:06;7.78;;;1.88;;
34497;SDS011;20744;50.938;7.286;2023-12-22T13:43:34;7.00;;;1.50;;
34497;SDS011;20744;50.938;7.286;2023-12-22T13:46:02;8.57;;;1.75;;
34497;SDS011;20744;50.938;7.286;2023-12-22T13:48:31;9.05;;;1.52;;
34497;SDS011;20744;50.938;7.286;2023-12-22T13:51:01;7.20;;;1.40;;
34497;SDS011;20744;50.938;7.286;2023-12-22T13:53:28;5.95;;;1.70;;
34497;SDS011;20744;50.938;7.286;2023-12-22T13:55:56;6.22;;;1.17;;
34497;SDS011;20744;50.938;7.286;2023-12-22T13:58:29;9.50;;;1.85;;
34497;SDS011;20744;50.938;7.286;2023-12-22T14:00:56;8.68;;;1.48;;
34497;SDS011;20744;50.938;7.286;2023-12-22T14:03:24;7.85;;;1.60;;
34497;SDS011;20744;50.938;7.286;2023-12-22T14:05:53;7.43;;;1.35;;
34497;SDS011;20744;50.938;7.286;2023-12-22T14:08:21;5.15;;;1.55;;
34497;SDS011;20744;50.938;7.286;2023-12-22T14:10:50;8.57;;;1.80;;
34497;SDS011;20744;50.938;7.286;2023-12-22T14:13:20;11.20;;;2.10;;
34497;SDS011;20744;50.938;7.286;2023-12-22T14:15:47;4.30;;;1.30;;
34497;SDS011;20744;50.938;7.286;2023-12-22T14:18:14;7.07;;;1.70;;
34497;SDS011;20744;50.938;7.286;2023-12-22T14:20:42;9.20;;;1.85;;
34497;SDS011;20744;50.938;7.286;2023-12-22T14:23:12;5.68;;;1.60;;
34497;SDS011;20744;50.938;7.286;2023-12-22T14:25:41;6.55;;;2.20;;
34497;SDS011;20744;50.938;7.286;2023-12-22T14:28:09;5.95;;;1.90;;
34497;SDS011;20744;50.938;7.286;2023-12-22T14:30:36;7.00;;;2.00;;
34497;SDS011;20744;50.938;7.286;2023-12-22T14:33:04;7.95;;;1.77;;
34497;SDS011;20744;50.938;7.286;2023-12-22T14:35:31;9.20;;;1.85;;
34497;SDS011;20744;50.938;7.286;2023-12-22T14:37:58;8.02;;;1.95;;
34497;SDS011;20744;50.938;7.286;2023-12-22T14:40:27;5.55;;;1.67;;
34497;SDS011;20744;50.938;7.286;2023-12-22T14:42:54;7.20;;;1.52;;
34497;SDS011;20744;50.938;7.286;2023-12-22T14:45:28;7.45;;;1.90;;
34497;SDS011;20744;50.938;7.286;2023-12-22T14:47:58;4.63;;;1.98;;